Escribe el Código OACI del Aeropuerto

Buscar por Aeropuerto o Ciudad

Información Meteorológica Actual

KFXE | Fort Lauderdale Executive Airport

Fort Lauderdale, Florida, United States

Última Actualización Hace 11 Minutos

Cielo Despejado a Baja Altura

27 ºC de Temperatura

Vientos Leves del Norte

Temperatura

27 ºC

Temperatura del Punto de Rocío

18 ºC

Humedad Relativa

58.07 %

Dirección del Viento

Norte (350º, Sin Variaciones de Consideración)

Velocidad del Viento

6 km/h (03 kt)

Ráfagas

No Hay

Visibilidad

Mayor a 10 Millas

Presión Reducida a Nivel del Mar

30.11 inHg (Pulgadas de Mercurio)

Capas de Nubes

No Hay

METAR KFXE 071553Z 35003KT 10SM CLR 27/18 A3011 RMK AO2 SLP198 T02670178

Pronóstico Meteorológico

KFXE | Fort Lauderdale Executive Airport

Fort Lauderdale, Florida, United States

Pronóstico válido para las próximas 20 Horas

A partir de este momento se espera:

Cielo con Nubes Dispersas

Vientos Leves a Moderados del Norte

En 2 horas se espera el comienzo de:

Cielo Parcialmente Nublado

Vientos Leves a Moderados del NorEste

En 9 horas se espera el comienzo de:

Vientos Leves de Direcciones Variables

Temperatura Máxima

Sin Datos

Temperatura Mínima

Sin Datos

TAF KFXE 071457Z 0715/0812 36005KT P6SM FEW040 FEW250 FM071800 06007KT P6SM FEW040 SCT250 FM080100 VRB03KT P6SM SCT250